Cade, Louisiana
Current Conditions -  °F | °C
As of 7:07 PM on Saturday 22 Nov 2014 (Local Time) from KARA Reporting Station
Broken Clouds Broken Clouds  
Wind Chill: 67°   Ceiling: 1400
Heat Index: 67°   Visibility: 10mi
Dew Point: 62°   Wind: 16mph
Humidity: 84%   Direction: 110°ESE
Pressure: 29.92"   Gusts: 24mph
Location:  30.09°N, 91.91°W
Report Text: KARA 230107Z AUTO 11014G21KT 10SM BKN014 BKN037 19/17 A2992 RMK AO2 T01940167
Loading
Personal Weather Stations






























Interactive Weather Map New forecast layout! Learn more

10-Day Weather Forecast

Advertisements
Track Severe Weather on mobile